sensor_id;sensor_type;location;lat;lon;timestamp;temperature;humidity
37530;DHT22;23374;52.758;6.872;2022-09-25T00:00:52;11.50;99.40
37530;DHT22;23374;52.758;6.872;2022-09-25T00:03:15;11.40;94.70
37530;DHT22;23374;52.758;6.872;2022-09-25T00:05:38;11.40;99.90
37530;DHT22;23374;52.758;6.872;2022-09-25T00:07:58;11.40;92.50
37530;DHT22;23374;52.758;6.872;2022-09-25T00:10:18;11.30;99.20
37530;DHT22;23374;52.758;6.872;2022-09-25T00:12:38;11.30;99.90
37530;DHT22;23374;52.758;6.872;2022-09-25T00:14:58;11.30;94.00
37530;DHT22;23374;52.758;6.872;2022-09-25T00:17:18;11.30;94.60
37530;DHT22;23374;52.758;6.872;2022-09-25T00:19:39;11.30;97.40
37530;DHT22;23374;52.758;6.872;2022-09-25T00:22:11;11.20;92.00
37530;DHT22;23374;52.758;6.872;2022-09-25T00:24:32;11.20;73.40
37530;DHT22;23374;52.758;6.872;2022-09-25T00:26:53;11.20;96.70
37530;DHT22;23374;52.758;6.872;2022-09-25T00:29:16;11.20;91.90
37530;DHT22;23374;52.758;6.872;2022-09-25T00:31:37;11.10;95.10
37530;DHT22;23374;52.758;6.872;2022-09-25T00:34:00;11.10;96.80
37530;DHT22;23374;52.758;6.872;2022-09-25T00:36:21;11.10;99.90
37530;DHT22;23374;52.758;6.872;2022-09-25T00:38:41;11.10;97.20
37530;DHT22;23374;52.758;6.872;2022-09-25T00:41:05;11.00;96.30
37530;DHT22;23374;52.758;6.872;2022-09-25T00:46:41;11.00;99.30
37530;DHT22;23374;52.758;6.872;2022-09-25T00:49:15;10.90;99.90
37530;DHT22;23374;52.758;6.872;2022-09-25T00:51:47;10.90;99.90
37530;DHT22;23374;52.758;6.872;2022-09-25T00:54:15;10.90;99.90
37530;DHT22;23374;52.758;6.872;2022-09-25T00:56:40;10.90;99.90
37530;DHT22;23374;52.758;6.872;2022-09-25T00:59:01;10.90;99.90
37530;DHT22;23374;52.758;6.872;2022-09-25T01:01:22;10.90;99.90
37530;DHT22;23374;52.758;6.872;2022-09-25T01:03:42;10.90;99.90
37530;DHT22;23374;52.758;6.872;2022-09-25T01:06:05;10.90;82.80
37530;DHT22;23374;52.758;6.872;2022-09-25T01:08:27;10.70;60.40
37530;DHT22;23374;52.758;6.872;2022-09-25T01:10:49;10.70;86.20
37530;DHT22;23374;52.758;6.872;2022-09-25T01:13:10;10.70;92.50
37530;DHT22;23374;52.758;6.872;2022-09-25T01:16:12;10.70;85.60
37530;DHT22;23374;52.758;6.872;2022-09-25T01:33:45;10.30;1.00
37530;DHT22;23374;52.758;6.872;2022-09-25T01:36:31;10.10;1.00
37530;DHT22;23374;52.758;6.872;2022-09-25T01:39:04;10.00;1.00
37530;DHT22;23374;52.758;6.872;2022-09-25T01:41:32;10.10;34.80
37530;DHT22;23374;52.758;6.872;2022-09-25T01:44:29;10.10;61.30
37530;DHT22;23374;52.758;6.872;2022-09-25T01:46:52;10.10;60.30
37530;DHT22;23374;52.758;6.872;2022-09-25T01:49:31;10.10;94.70
37530;DHT22;23374;52.758;6.872;2022-09-25T01:51:54;10.10;79.00
37530;DHT22;23374;52.758;6.872;2022-09-25T01:55:53;10.10;98.30
37530;DHT22;23374;52.758;6.872;2022-09-25T01:58:47;10.10;98.60
37530;DHT22;23374;52.758;6.872;2022-09-25T02:01:13;10.10;95.00
37530;DHT22;23374;52.758;6.872;2022-09-25T02:03:52;10.10;99.90
37530;DHT22;23374;52.758;6.872;2022-09-25T02:06:19;10.20;99.90
37530;DHT22;23374;52.758;6.872;2022-09-25T02:08:48;10.20;99.90
37530;DHT22;23374;52.758;6.872;2022-09-25T02:11:11;10.20;99.90
37530;DHT22;23374;52.758;6.872;2022-09-25T02:14:05;10.20;99.90
37530;DHT22;23374;52.758;6.872;2022-09-25T02:16:38;10.20;99.90
37530;DHT22;23374;52.758;6.872;2022-09-25T02:19:03;10.20;99.90
37530;DHT22;23374;52.758;6.872;2022-09-25T02:22:06;10.20;99.90
37530;DHT22;23374;52.758;6.872;2022-09-25T02:24:56;10.20;99.90
37530;DHT22;23374;52.758;6.872;2022-09-25T02:27:17;10.20;99.90
37530;DHT22;23374;52.758;6.872;2022-09-25T02:29:39;10.10;90.50
37530;DHT22;23374;52.758;6.872;2022-09-25T02:32:05;10.10;99.90
37530;DHT22;23374;52.758;6.872;2022-09-25T02:34:27;10.10;99.90
37530;DHT22;23374;52.758;6.872;2022-09-25T02:36:47;10.10;99.90
37530;DHT22;23374;52.758;6.872;2022-09-25T02:39:08;10.00;59.10
37530;DHT22;23374;52.758;6.872;2022-09-25T02:43:23;10.00;70.30
37530;DHT22;23374;52.758;6.872;2022-09-25T02:49:19;9.90;37.20
37530;DHT22;23374;52.758;6.872;2022-09-25T02:52:03;9.90;14.30
37530;DHT22;23374;52.758;6.872;2022-09-25T02:57:22;9.80;49.50
37530;DHT22;23374;52.758;6.872;2022-09-25T02:59:52;9.70;22.20
37530;DHT22;23374;52.758;6.872;2022-09-25T03:02:15;9.60;17.00
37530;DHT22;23374;52.758;6.872;2022-09-25T03:04:36;9.60;6.60
37530;DHT22;23374;52.758;6.872;2022-09-25T03:06:58;9.50;1.00
37530;DHT22;23374;52.758;6.872;2022-09-25T03:09:19;9.40;1.00
37530;DHT22;23374;52.758;6.872;2022-09-25T03:11:41;9.40;1.00
37530;DHT22;23374;52.758;6.872;2022-09-25T03:14:02;9.30;1.00
37530;DHT22;23374;52.758;6.872;2022-09-25T03:17:09;9.20;1.00
37530;DHT22;23374;52.758;6.872;2022-09-25T03:19:31;9.10;1.00
37530;DHT22;23374;52.758;6.872;2022-09-25T03:21:52;9.10;1.00
37530;DHT22;23374;52.758;6.872;2022-09-25T03:24:14;9.00;1.00
37530;DHT22;23374;52.758;6.872;2022-09-25T03:26:34;9.00;1.00
37530;DHT22;23374;52.758;6.872;2022-09-25T03:28:55;8.90;1.00
37530;DHT22;23374;52.758;6.872;2022-09-25T03:31:16;8.90;1.00
37530;DHT22;23374;52.758;6.872;2022-09-25T03:33:40;8.90;1.00
37530;DHT22;23374;52.758;6.872;2022-09-25T03:36:16;8.90;1.00
37530;DHT22;23374;52.758;6.872;2022-09-25T03:38:41;8.80;1.00
37530;DHT22;23374;52.758;6.872;2022-09-25T03:41:02;8.90;1.00
37530;DHT22;23374;52.758;6.872;2022-09-25T03:43:22;8.90;1.00
37530;DHT22;23374;52.758;6.872;2022-09-25T03:45:43;8.90;1.00
37530;DHT22;23374;52.758;6.872;2022-09-25T03:48:03;8.90;1.00
37530;DHT22;23374;52.758;6.872;2022-09-25T03:50:23;8.90;1.00
37530;DHT22;23374;52.758;6.872;2022-09-25T03:52:43;9.00;1.00
37530;DHT22;23374;52.758;6.872;2022-09-25T03:55:05;8.90;1.00
37530;DHT22;23374;52.758;6.872;2022-09-25T03:57:25;8.90;1.00
37530;DHT22;23374;52.758;6.872;2022-09-25T03:59:45;8.80;1.00
37530;DHT22;23374;52.758;6.872;2022-09-25T04:02:05;8.80;1.00
37530;DHT22;23374;52.758;6.872;2022-09-25T04:04:26;8.80;1.00
37530;DHT22;23374;52.758;6.872;2022-09-25T04:06:46;8.80;1.00
37530;DHT22;23374;52.758;6.872;2022-09-25T04:09:07;8.70;1.00
37530;DHT22;23374;52.758;6.872;2022-09-25T04:11:27;8.60;1.00
37530;DHT22;23374;52.758;6.872;2022-09-25T04:13:47;8.60;1.00
37530;DHT22;23374;52.758;6.872;2022-09-25T04:16:07;8.50;1.00
37530;DHT22;23374;52.758;6.872;2022-09-25T04:18:28;8.50;1.00
37530;DHT22;23374;52.758;6.872;2022-09-25T04:20:51;8.40;1.00
37530;DHT22;23374;52.758;6.872;2022-09-25T04:23:11;8.30;1.00
37530;DHT22;23374;52.758;6.872;2022-09-25T04:25:31;8.30;1.00
37530;DHT22;23374;52.758;6.872;2022-09-25T04:27:56;8.20;1.00
37530;DHT22;23374;52.758;6.872;2022-09-25T04:30:17;8.30;58.80
37530;DHT22;23374;52.758;6.872;2022-09-25T04:32:37;8.40;67.00
37530;DHT22;23374;52.758;6.872;2022-09-25T04:35:16;8.50;99.90
37530;DHT22;23374;52.758;6.872;2022-09-25T04:37:37;8.60;99.90
37530;DHT22;23374;52.758;6.872;2022-09-25T04:39:57;8.70;99.90
37530;DHT22;23374;52.758;6.872;2022-09-25T04:42:17;8.80;99.90
37530;DHT22;23374;52.758;6.872;2022-09-25T04:44:40;8.90;99.90
37530;DHT22;23374;52.758;6.872;2022-09-25T04:47:00;8.90;99.90
37530;DHT22;23374;52.758;6.872;2022-09-25T04:49:20;9.00;99.90
37530;DHT22;23374;52.758;6.872;2022-09-25T04:51:41;9.00;99.90
37530;DHT22;23374;52.758;6.872;2022-09-25T04:54:01;9.10;99.90
37530;DHT22;23374;52.758;6.872;2022-09-25T04:56:21;9.10;99.90
37530;DHT22;23374;52.758;6.872;2022-09-25T04:58:48;9.20;99.90
37530;DHT22;23374;52.758;6.872;2022-09-25T05:01:09;9.20;99.90
37530;DHT22;23374;52.758;6.872;2022-09-25T05:03:29;9.20;99.90
37530;DHT22;23374;52.758;6.872;2022-09-25T05:05:50;9.20;99.90
37530;DHT22;23374;52.758;6.872;2022-09-25T05:08:10;9.20;99.90
37530;DHT22;23374;52.758;6.872;2022-09-25T05:10:32;9.20;99.90
37530;DHT22;23374;52.758;6.872;2022-09-25T05:13:01;9.30;99.90
37530;DHT22;23374;52.758;6.872;2022-09-25T05:15:22;9.20;97.60
37530;DHT22;23374;52.758;6.872;2022-09-25T05:17:42;9.10;93.60
37530;DHT22;23374;52.758;6.872;2022-09-25T05:20:03;9.10;86.10
37530;DHT22;23374;52.758;6.872;2022-09-25T05:22:24;9.00;59.20
37530;DHT22;23374;52.758;6.872;2022-09-25T05:24:44;9.00;44.60
37530;DHT22;23374;52.758;6.872;2022-09-25T05:27:04;8.90;48.60
37530;DHT22;23374;52.758;6.872;2022-09-25T05:29:24;8.90;20.60
37530;DHT22;23374;52.758;6.872;2022-09-25T05:31:46;8.90;11.80
37530;DHT22;23374;52.758;6.872;2022-09-25T05:34:08;8.80;1.00
37530;DHT22;23374;52.758;6.872;2022-09-25T05:36:28;8.80;1.00
37530;DHT22;23374;52.758;6.872;2022-09-25T05:38:49;8.80;1.00
37530;DHT22;23374;52.758;6.872;2022-09-25T05:41:10;8.80;1.00
37530;DHT22;23374;52.758;6.872;2022-09-25T05:43:31;8.80;15.70
37530;DHT22;23374;52.758;6.872;2022-09-25T05:45:56;8.90;16.30
37530;DHT22;23374;52.758;6.872;2022-09-25T05:48:16;8.90;12.90
37530;DHT22;23374;52.758;6.872;2022-09-25T05:50:37;8.90;29.30
37530;DHT22;23374;52.758;6.872;2022-09-25T05:53:00;8.90;6.00
37530;DHT22;23374;52.758;6.872;2022-09-25T05:55:20;8.80;17.70
37530;DHT22;23374;52.758;6.872;2022-09-25T05:57:40;8.80;25.90
37530;DHT22;23374;52.758;6.872;2022-09-25T06:00:05;8.80;19.10
37530;DHT22;23374;52.758;6.872;2022-09-25T06:02:25;8.70;12.80
37530;DHT22;23374;52.758;6.872;2022-09-25T06:04:46;8.70;34.20
37530;DHT22;23374;52.758;6.872;2022-09-25T06:07:07;8.70;14.80
37530;DHT22;23374;52.758;6.872;2022-09-25T06:09:29;8.70;1.00
37530;DHT22;23374;52.758;6.872;2022-09-25T06:11:49;8.60;4.00
37530;DHT22;23374;52.758;6.872;2022-09-25T06:14:10;8.60;24.60
37530;DHT22;23374;52.758;6.872;2022-09-25T06:16:32;8.60;25.30
37530;DHT22;23374;52.758;6.872;2022-09-25T06:18:52;8.50;28.30
37530;DHT22;23374;52.758;6.872;2022-09-25T06:21:13;8.50;50.50
37530;DHT22;23374;52.758;6.872;2022-09-25T06:23:33;8.50;55.80
37530;DHT22;23374;52.758;6.872;2022-09-25T06:25:53;8.60;99.90
37530;DHT22;23374;52.758;6.872;2022-09-25T06:28:14;8.70;99.90
37530;DHT22;23374;52.758;6.872;2022-09-25T06:30:36;8.80;99.90
37530;DHT22;23374;52.758;6.872;2022-09-25T06:32:57;8.90;99.90
37530;DHT22;23374;52.758;6.872;2022-09-25T06:35:19;9.00;99.90
37530;DHT22;23374;52.758;6.872;2022-09-25T06:37:40;9.10;99.90
37530;DHT22;23374;52.758;6.872;2022-09-25T06:40:00;9.20;99.90
37530;DHT22;23374;52.758;6.872;2022-09-25T06:42:21;9.40;99.90
37530;DHT22;23374;52.758;6.872;2022-09-25T06:44:42;9.50;99.90
37530;DHT22;23374;52.758;6.872;2022-09-25T06:47:02;9.60;99.90
37530;DHT22;23374;52.758;6.872;2022-09-25T06:49:23;9.70;99.90
37530;DHT22;23374;52.758;6.872;2022-09-25T06:51:43;9.80;99.90
37530;DHT22;23374;52.758;6.872;2022-09-25T06:54:03;9.80;99.90
37530;DHT22;23374;52.758;6.872;2022-09-25T06:56:24;9.90;99.90
37530;DHT22;23374;52.758;6.872;2022-09-25T06:58:45;9.90;99.90
37530;DHT22;23374;52.758;6.872;2022-09-25T07:01:05;10.00;99.90
37530;DHT22;23374;52.758;6.872;2022-09-25T07:03:30;10.10;99.90
37530;DHT22;23374;52.758;6.872;2022-09-25T07:06:09;10.10;99.90
37530;DHT22;23374;52.758;6.872;2022-09-25T07:08:29;10.20;99.90
37530;DHT22;23374;52.758;6.872;2022-09-25T07:10:52;10.30;99.90
37530;DHT22;23374;52.758;6.872;2022-09-25T07:13:13;10.40;99.90
37530;DHT22;23374;52.758;6.872;2022-09-25T07:15:33;10.40;99.90
37530;DHT22;23374;52.758;6.872;2022-09-25T07:17:54;10.50;99.90
37530;DHT22;23374;52.758;6.872;2022-09-25T07:20:15;10.60;99.90
37530;DHT22;23374;52.758;6.872;2022-09-25T07:22:35;10.70;99.90
37530;DHT22;23374;52.758;6.872;2022-09-25T07:24:55;10.80;99.90
37530;DHT22;23374;52.758;6.872;2022-09-25T07:27:16;10.90;99.90
37530;DHT22;23374;52.758;6.872;2022-09-25T07:29:36;11.00;99.90
37530;DHT22;23374;52.758;6.872;2022-09-25T07:31:57;11.10;99.90
37530;DHT22;23374;52.758;6.872;2022-09-25T07:34:19;11.10;99.90
37530;DHT22;23374;52.758;6.872;2022-09-25T07:36:40;11.20;99.90
37530;DHT22;23374;52.758;6.872;2022-09-25T07:39:01;11.30;99.90
37530;DHT22;23374;52.758;6.872;2022-09-25T07:41:22;11.40;99.90
37530;DHT22;23374;52.758;6.872;2022-09-25T07:43:43;11.50;99.90
37530;DHT22;23374;52.758;6.872;2022-09-25T07:46:05;11.50;99.90
37530;DHT22;23374;52.758;6.872;2022-09-25T07:48:26;11.60;99.90
37530;DHT22;23374;52.758;6.872;2022-09-25T07:50:47;11.70;99.90
37530;DHT22;23374;52.758;6.872;2022-09-25T07:53:09;11.70;99.90
37530;DHT22;23374;52.758;6.872;2022-09-25T07:55:29;11.80;99.90
37530;DHT22;23374;52.758;6.872;2022-09-25T07:57:49;11.90;99.90
37530;DHT22;23374;52.758;6.872;2022-09-25T08:00:12;12.00;99.90
37530;DHT22;23374;52.758;6.872;2022-09-25T08:02:32;12.10;99.90
37530;DHT22;23374;52.758;6.872;2022-09-25T08:04:54;12.20;99.90
37530;DHT22;23374;52.758;6.872;2022-09-25T08:07:14;12.20;99.90
37530;DHT22;23374;52.758;6.872;2022-09-25T08:09:34;12.30;99.90
37530;DHT22;23374;52.758;6.872;2022-09-25T08:11:54;12.40;99.90
37530;DHT22;23374;52.758;6.872;2022-09-25T08:14:15;12.40;99.90
37530;DHT22;23374;52.758;6.872;2022-09-25T08:16:35;12.50;99.90
37530;DHT22;23374;52.758;6.872;2022-09-25T08:18:55;12.50;99.90
37530;DHT22;23374;52.758;6.872;2022-09-25T08:21:19;12.60;99.90
37530;DHT22;23374;52.758;6.872;2022-09-25T08:23:41;12.70;99.90
37530;DHT22;23374;52.758;6.872;2022-09-25T08:26:01;12.70;99.90
37530;DHT22;23374;52.758;6.872;2022-09-25T08:28:21;12.80;99.90
37530;DHT22;23374;52.758;6.872;2022-09-25T08:30:42;12.90;99.90
37530;DHT22;23374;52.758;6.872;2022-09-25T08:33:03;12.90;99.90
37530;DHT22;23374;52.758;6.872;2022-09-25T08:35:23;12.90;99.90
37530;DHT22;23374;52.758;6.872;2022-09-25T08:37:43;13.00;99.90
37530;DHT22;23374;52.758;6.872;2022-09-25T08:40:06;13.00;99.90
37530;DHT22;23374;52.758;6.872;2022-09-25T08:42:36;13.10;99.90
37530;DHT22;23374;52.758;6.872;2022-09-25T08:45:01;13.10;99.90
37530;DHT22;23374;52.758;6.872;2022-09-25T08:47:40;13.20;99.90
37530;DHT22;23374;52.758;6.872;2022-09-25T08:50:23;13.20;99.90
37530;DHT22;23374;52.758;6.872;2022-09-25T08:52:49;13.30;99.90
37530;DHT22;23374;52.758;6.872;2022-09-25T08:55:24;13.30;73.80
37530;DHT22;23374;52.758;6.872;2022-09-25T08:58:38;13.30;95.00
37530;DHT22;23374;52.758;6.872;2022-09-25T09:01:05;13.40;92.40
37530;DHT22;23374;52.758;6.872;2022-09-25T09:03:27;13.40;72.50
37530;DHT22;23374;52.758;6.872;2022-09-25T09:05:54;13.40;46.90
37530;DHT22;23374;52.758;6.872;2022-09-25T09:08:20;13.50;35.90
37530;DHT22;23374;52.758;6.872;2022-09-25T09:11:30;13.50;14.00
37530;DHT22;23374;52.758;6.872;2022-09-25T09:14:06;13.60;1.00
37530;DHT22;23374;52.758;6.872;2022-09-25T09:17:18;13.70;1.00
37530;DHT22;23374;52.758;6.872;2022-09-25T09:19:39;13.70;1.00
37530;DHT22;23374;52.758;6.872;2022-09-25T09:22:09;13.80;1.00
37530;DHT22;23374;52.758;6.872;2022-09-25T09:33:44;13.90;1.00
37530;DHT22;23374;52.758;6.872;2022-09-25T09:39:59;14.00;1.00
37530;DHT22;23374;52.758;6.872;2022-09-25T09:42:47;14.20;1.00
37530;DHT22;23374;52.758;6.872;2022-09-25T09:45:29;14.30;1.00
37530;DHT22;23374;52.758;6.872;2022-09-25T09:57:32;14.60;99.90
37530;DHT22;23374;52.758;6.872;2022-09-25T10:00:06;14.90;99.90
37530;DHT22;23374;52.758;6.872;2022-09-25T10:02:43;14.90;99.90
37530;DHT22;23374;52.758;6.872;2022-09-25T10:05:31;14.90;99.90
37530;DHT22;23374;52.758;6.872;2022-09-25T10:07:53;15.00;99.90
37530;DHT22;23374;52.758;6.872;2022-09-25T10:10:15;15.00;99.90
37530;DHT22;23374;52.758;6.872;2022-09-25T10:12:37;15.00;99.90
37530;DHT22;23374;52.758;6.872;2022-09-25T10:15:12;15.00;1.00
37530;DHT22;23374;52.758;6.872;2022-09-25T10:17:35;15.20;1.00
37530;DHT22;23374;52.758;6.872;2022-09-25T10:20:00;15.30;1.00
37530;DHT22;23374;52.758;6.872;2022-09-25T10:22:28;15.40;99.90
37530;DHT22;23374;52.758;6.872;2022-09-25T10:24:57;15.60;99.90
37530;DHT22;23374;52.758;6.872;2022-09-25T10:27:41;15.70;1.00
37530;DHT22;23374;52.758;6.872;2022-09-25T10:30:26;15.60;1.00
37530;DHT22;23374;52.758;6.872;2022-09-25T10:33:17;15.60;1.00
37530;DHT22;23374;52.758;6.872;2022-09-25T10:35:44;15.60;1.00
37530;DHT22;23374;52.758;6.872;2022-09-25T10:38:35;15.70;99.90
37530;DHT22;23374;52.758;6.872;2022-09-25T10:41:11;15.60;1.00
37530;DHT22;23374;52.758;6.872;2022-09-25T10:43:32;15.60;1.00
37530;DHT22;23374;52.758;6.872;2022-09-25T10:47:46;15.70;99.90
37530;DHT22;23374;52.758;6.872;2022-09-25T10:50:26;15.70;1.00
37530;DHT22;23374;52.758;6.872;2022-09-25T10:52:56;15.70;99.90
37530;DHT22;23374;52.758;6.872;2022-09-25T10:55:30;15.60;99.90
37530;DHT22;23374;52.758;6.872;2022-09-25T10:58:05;15.60;99.90
37530;DHT22;23374;52.758;6.872;2022-09-25T11:00:28;15.50;1.00
37530;DHT22;23374;52.758;6.872;2022-09-25T11:02:55;15.40;99.90
37530;DHT22;23374;52.758;6.872;2022-09-25T11:05:19;15.30;99.90
37530;DHT22;23374;52.758;6.872;2022-09-25T11:07:53;15.20;1.00
37530;DHT22;23374;52.758;6.872;2022-09-25T11:10:32;15.20;1.00
37530;DHT22;23374;52.758;6.872;2022-09-25T11:12:53;15.20;1.00
37530;DHT22;23374;52.758;6.872;2022-09-25T11:15:18;15.10;1.00
37530;DHT22;23374;52.758;6.872;2022-09-25T11:17:42;15.10;1.00
37530;DHT22;23374;52.758;6.872;2022-09-25T11:22:21;15.10;1.00
37530;DHT22;23374;52.758;6.872;2022-09-25T11:25:12;15.10;1.00
37530;DHT22;23374;52.758;6.872;2022-09-25T11:27:48;15.10;1.00
37530;DHT22;23374;52.758;6.872;2022-09-25T11:30:18;15.20;1.00
37530;DHT22;23374;52.758;6.872;2022-09-25T11:35:35;15.30;1.00
37530;DHT22;23374;52.758;6.872;2022-09-25T11:38:45;15.40;99.90
37530;DHT22;23374;52.758;6.872;2022-09-25T11:41:41;15.50;1.00
37530;DHT22;23374;52.758;6.872;2022-09-25T11:47:45;15.50;1.00
37530;DHT22;23374;52.758;6.872;2022-09-25T11:50:13;15.60;1.00
37530;DHT22;23374;52.758;6.872;2022-09-25T11:54:24;15.70;1.00
37530;DHT22;23374;52.758;6.872;2022-09-25T11:57:02;15.80;99.90
37530;DHT22;23374;52.758;6.872;2022-09-25T12:02:56;15.90;1.00
37530;DHT22;23374;52.758;6.872;2022-09-25T12:09:17;16.10;99.90
37530;DHT22;23374;52.758;6.872;2022-09-25T12:21:01;16.40;99.90
37530;DHT22;23374;52.758;6.872;2022-09-25T12:27:46;16.60;1.00
37530;DHT22;23374;52.758;6.872;2022-09-25T12:30:19;16.50;1.00
37530;DHT22;23374;52.758;6.872;2022-09-25T12:33:16;16.50;1.00
37530;DHT22;23374;52.758;6.872;2022-09-25T12:36:15;16.50;1.00
37530;DHT22;23374;52.758;6.872;2022-09-25T12:38:54;16.50;1.00
37530;DHT22;23374;52.758;6.872;2022-09-25T12:43:03;16.50;1.00
37530;DHT22;23374;52.758;6.872;2022-09-25T12:50:45;16.40;99.90
37530;DHT22;23374;52.758;6.872;2022-09-25T12:56:59;16.60;1.00
37530;DHT22;23374;52.758;6.872;2022-09-25T12:59:41;16.60;1.00
37530;DHT22;23374;52.758;6.872;2022-09-25T13:05:24;16.50;1.00
37530;DHT22;23374;52.758;6.872;2022-09-25T13:08:15;16.30;1.00
37530;DHT22;23374;52.758;6.872;2022-09-25T13:12:33;16.30;1.00
37530;DHT22;23374;52.758;6.872;2022-09-25T13:15:08;16.30;1.00
37530;DHT22;23374;52.758;6.872;2022-09-25T13:17:29;16.30;1.00
37530;DHT22;23374;52.758;6.872;2022-09-25T13:19:51;16.30;1.00
37530;DHT22;23374;52.758;6.872;2022-09-25T13:22:20;16.40;1.00
37530;DHT22;23374;52.758;6.872;2022-09-25T13:25:38;16.40;1.00
37530;DHT22;23374;52.758;6.872;2022-09-25T13:28:07;16.40;1.00
37530;DHT22;23374;52.758;6.872;2022-09-25T13:30:28;16.40;1.00
37530;DHT22;23374;52.758;6.872;2022-09-25T13:32:51;16.40;1.00
37530;DHT22;23374;52.758;6.872;2022-09-25T13:35:17;16.40;1.00
37530;DHT22;23374;52.758;6.872;2022-09-25T13:37:38;16.50;1.00
37530;DHT22;23374;52.758;6.872;2022-09-25T13:40:00;16.50;1.00
37530;DHT22;23374;52.758;6.872;2022-09-25T13:42:45;16.50;1.00
37530;DHT22;23374;52.758;6.872;2022-09-25T13:45:31;16.50;1.00
37530;DHT22;23374;52.758;6.872;2022-09-25T13:48:35;16.50;1.00
37530;DHT22;23374;52.758;6.872;2022-09-25T13:51:30;16.40;1.00
37530;DHT22;23374;52.758;6.872;2022-09-25T13:54:02;16.40;1.00
37530;DHT22;23374;52.758;6.872;2022-09-25T13:56:45;16.40;1.00
37530;DHT22;23374;52.758;6.872;2022-09-25T13:59:35;16.40;1.00
37530;DHT22;23374;52.758;6.872;2022-09-25T14:02:28;16.20;1.00
37530;DHT22;23374;52.758;6.872;2022-09-25T14:04:52;16.00;1.00
37530;DHT22;23374;52.758;6.872;2022-09-25T14:07:25;15.80;1.00
37530;DHT22;23374;52.758;6.872;2022-09-25T14:09:54;15.60;1.00
37530;DHT22;23374;52.758;6.872;2022-09-25T14:12:30;15.50;1.00
37530;DHT22;23374;52.758;6.872;2022-09-25T14:15:06;15.40;1.00
37530;DHT22;23374;52.758;6.872;2022-09-25T14:17:29;15.30;1.00
37530;DHT22;23374;52.758;6.872;2022-09-25T14:19:53;15.20;1.00
37530;DHT22;23374;52.758;6.872;2022-09-25T14:22:41;15.20;1.00
37530;DHT22;23374;52.758;6.872;2022-09-25T14:25:28;15.20;1.00
37530;DHT22;23374;52.758;6.872;2022-09-25T14:27:53;15.10;1.00
37530;DHT22;23374;52.758;6.872;2022-09-25T14:30:13;15.10;43.10
37530;DHT22;23374;52.758;6.872;2022-09-25T14:33:03;15.10;62.40
37530;DHT22;23374;52.758;6.872;2022-09-25T14:50:32;15.30;1.00
37530;DHT22;23374;52.758;6.872;2022-09-25T14:52:57;15.50;99.90
37530;DHT22;23374;52.758;6.872;2022-09-25T14:55:19;15.60;1.00
37530;DHT22;23374;52.758;6.872;2022-09-25T14:57:42;15.60;1.00
37530;DHT22;23374;52.758;6.872;2022-09-25T15:00:06;15.60;99.90
37530;DHT22;23374;52.758;6.872;2022-09-25T15:02:43;15.60;99.90
37530;DHT22;23374;52.758;6.872;2022-09-25T15:05:36;15.50;1.00
37530;DHT22;23374;52.758;6.872;2022-09-25T15:07:58;15.50;1.00
37530;DHT22;23374;52.758;6.872;2022-09-25T15:10:36;15.60;99.90
37530;DHT22;23374;52.758;6.872;2022-09-25T15:13:14;15.70;1.00
37530;DHT22;23374;52.758;6.872;2022-09-25T15:15:36;15.80;1.00
37530;DHT22;23374;52.758;6.872;2022-09-25T15:18:01;15.90;99.90
37530;DHT22;23374;52.758;6.872;2022-09-25T15:20:33;15.90;1.00
37530;DHT22;23374;52.758;6.872;2022-09-25T15:23:12;15.90;99.90
37530;DHT22;23374;52.758;6.872;2022-09-25T15:25:42;15.80;1.00
37530;DHT22;23374;52.758;6.872;2022-09-25T15:28:10;15.80;1.00
37530;DHT22;23374;52.758;6.872;2022-09-25T15:30:34;15.80;1.00
37530;DHT22;23374;52.758;6.872;2022-09-25T15:32:55;15.90;99.90
37530;DHT22;23374;52.758;6.872;2022-09-25T15:35:23;15.90;1.00
37530;DHT22;23374;52.758;6.872;2022-09-25T15:37:45;15.90;1.00
37530;DHT22;23374;52.758;6.872;2022-09-25T15:40:25;16.00;99.90
37530;DHT22;23374;52.758;6.872;2022-09-25T15:42:48;16.00;99.90
37530;DHT22;23374;52.758;6.872;2022-09-25T15:46:53;16.10;99.90
37530;DHT22;23374;52.758;6.872;2022-09-25T15:49:29;16.10;1.00
37530;DHT22;23374;52.758;6.872;2022-09-25T15:51:54;16.00;99.90
37530;DHT22;23374;52.758;6.872;2022-09-25T15:54:50;16.00;99.90
37530;DHT22;23374;52.758;6.872;2022-09-25T15:57:14;15.90;1.00
37530;DHT22;23374;52.758;6.872;2022-09-25T15:59:45;15.80;1.00
37530;DHT22;23374;52.758;6.872;2022-09-25T16:02:26;15.80;1.00
37530;DHT22;23374;52.758;6.872;2022-09-25T16:05:09;15.80;18.90
37530;DHT22;23374;52.758;6.872;2022-09-25T16:07:33;15.80;99.90
37530;DHT22;23374;52.758;6.872;2022-09-25T16:10:38;15.80;99.90
37530;DHT22;23374;52.758;6.872;2022-09-25T16:12:58;15.80;2.40
37530;DHT22;23374;52.758;6.872;2022-09-25T16:15:43;15.70;1.00
37530;DHT22;23374;52.758;6.872;2022-09-25T16:24:53;15.60;99.90
37530;DHT22;23374;52.758;6.872;2022-09-25T16:27:30;15.20;99.90
37530;DHT22;23374;52.758;6.872;2022-09-25T16:29:51;15.10;1.00
37530;DHT22;23374;52.758;6.872;2022-09-25T16:32:17;15.10;92.40
37530;DHT22;23374;52.758;6.872;2022-09-25T16:34:39;15.00;19.70
37530;DHT22;23374;52.758;6.872;2022-09-25T16:37:04;15.00;46.80
37530;DHT22;23374;52.758;6.872;2022-09-25T16:39:37;15.00;1.00
37530;DHT22;23374;52.758;6.872;2022-09-25T16:41:57;14.90;99.90
37530;DHT22;23374;52.758;6.872;2022-09-25T16:44:44;14.80;1.00
37530;DHT22;23374;52.758;6.872;2022-09-25T16:47:19;14.80;25.20
37530;DHT22;23374;52.758;6.872;2022-09-25T16:49:40;14.80;1.00
37530;DHT22;23374;52.758;6.872;2022-09-25T16:52:05;14.70;1.00
37530;DHT22;23374;52.758;6.872;2022-09-25T16:54:27;14.70;1.00
37530;DHT22;23374;52.758;6.872;2022-09-25T16:56:50;14.70;99.90
37530;DHT22;23374;52.758;6.872;2022-09-25T16:59:21;14.70;99.90
37530;DHT22;23374;52.758;6.872;2022-09-25T17:01:42;14.60;1.00
37530;DHT22;23374;52.758;6.872;2022-09-25T17:04:03;14.60;1.00
37530;DHT22;23374;52.758;6.872;2022-09-25T17:06:26;14.60;1.00
37530;DHT22;23374;52.758;6.872;2022-09-25T17:08:50;14.50;45.00
37530;DHT22;23374;52.758;6.872;2022-09-25T17:11:11;14.50;99.90
37530;DHT22;23374;52.758;6.872;2022-09-25T17:13:33;14.50;99.90
37530;DHT22;23374;52.758;6.872;2022-09-25T17:15:53;14.50;99.90
37530;DHT22;23374;52.758;6.872;2022-09-25T17:18:20;14.50;99.90
37530;DHT22;23374;52.758;6.872;2022-09-25T17:20:41;14.50;99.90
37530;DHT22;23374;52.758;6.872;2022-09-25T17:23:01;14.50;99.90
37530;DHT22;23374;52.758;6.872;2022-09-25T17:26:19;14.50;99.90
37530;DHT22;23374;52.758;6.872;2022-09-25T17:28:40;14.50;1.00
37530;DHT22;23374;52.758;6.872;2022-09-25T17:31:01;14.50;99.90
37530;DHT22;23374;52.758;6.872;2022-09-25T17:33:22;14.50;1.00
37530;DHT22;23374;52.758;6.872;2022-09-25T17:36:03;14.50;1.00
37530;DHT22;23374;52.758;6.872;2022-09-25T17:38:25;14.40;1.00
37530;DHT22;23374;52.758;6.872;2022-09-25T17:40:49;14.40;1.00
37530;DHT22;23374;52.758;6.872;2022-09-25T17:43:13;14.40;1.00
37530;DHT22;23374;52.758;6.872;2022-09-25T17:45:43;14.40;99.90